Wichita Mid Continent Airport
KICT : now visible

Airfield :











YOU CAN JOIN US ON...

 
LOGIN :

Register | Disclaimer

   EN    FR    IT 

 









Legend :    VFR   Marginal VFR   IFR   Intensive IFR   Very Intensive IFR
Visi :
Ceiling :
>= 8 km
>= 3000ft
5 to 8 km
1000 to 3000 ft
1500m to 5 km
500 to 1000 ft
800 to 1500m
200 to 500 ft
< 800m
< 200 ft
Symbols :   Thunderstorms  Fog  Heavy snow  Heavy precipitations  Wind > 20 kt






- Airport Elevation : 1333 ft
- IATA code : ICT


KICT - Wichita Mid Continent

CURRENT METAR :
  • 200053Z 05012KT 10SM OVC090 14/M03 A3020 RMK AO2 SLP228 T01441028

EXPIRED METARs :
  • 192353Z 05012KT 10SM OVC090 15/M04 A3019 RMK AO2 SLP225 T01501039 10172 20144 53001
  • 192253Z 03011KT 10SM OVC090 16/M03 A3019 RMK AO2 SLP222 T01611033
  • 192153Z 04011G14KT 10SM OVC095 16/M04 A3019 RMK AO2 SLP222 T01611039
  • 192053Z 04012KT 10SM FEW085 SCT210 17/M03 A3019 RMK AO2 SLP222 T01721033 56021

TAF KICT
Valid from the 20 at 00:00 until the 21 at 00:00 UTC


192330Z 2000/2024 06009KT P6SM BKN100
FM200800 03007KT P6SM BKN100
FM201200 04011G20KT P6SM BKN100
FM202100 04010KT P6SM BKN080
KZKC FIR / North America



MET'MAP, your aeronautical weather chart ! - Copyright ORBIFLY December 2007 - Disclaimer

ORBIFLY MET'MAP TEAM :

Programming & Development : Alexandra Zaïnal
Original concept : Baudouin d'Aumeries
Technical & hardware support : Manuel Goepfert
Assistance : Marc-Olivier Méhu




SOURCES & CREDITS :

   NOAA       Earth
Advisory